Terminal Aerodrome Forecast
Issued by NWS Blacksburg, VA

Current Version | Previous Version | Text Only | Print | Product List | Glossary Off
Versions: 1 2 3 4 5 6 7 8 9 10 11 12 13 14 15 16 17 18 19 20 21 22 23 24 25 26 27 28 29 30 31 32 33 34 35 36 37 38 39 40 41

000
FTUS41 KRNK 270520
TAFBLF
TAF
KBLF 270520Z 2706/2806 31006KT P6SM -SN OVC013
     FM271400 30007KT P6SM OVC012
     FM272000 31010KT P6SM BKN022=

USA.gov is the U.S. government's official web portal to all federal, state and local government web resources and services.